Time;durP1;ratioP1;P1;durP2;ratioP2;P2;SDS_P1;SDS_P2;PMS_P1;PMS_P2;Temp;Humidity;BMP_temperature;BMP_pressure;BME280_temperature;BME280_humidity;BME280_pressure;Samples;Min_cycle;Max_cycle;Signal;HPM_P1;HPM_P2
2023/04/13 00:00:45;;;;;;;8.40;6.80;;;;;;;11.15;95.93;98521.41;105790;1256;60416;-72
2023/04/13 00:03:15;;;;;;;11.90;7.30;;;;;;;11.13;95.60;98516.14;106003;1257;60545;-74
2023/04/13 00:05:43;;;;;;;10.90;6.60;;;;;;;11.15;96.05;98520.68;105894;1252;72211;-71
2023/04/13 00:08:17;;;;;;;6.70;6.00;;;;;;;11.17;96.35;98523.44;105796;1254;71473;-71
2023/04/13 00:10:44;;;;;;;9.10;6.00;;;;;;;11.21;96.66;98536.56;105952;1254;71595;-74
2023/04/13 00:13:13;;;;;;;11.90;7.20;;;;;;;11.24;96.21;98537.24;105959;1253;60620;-75
2023/04/13 00:15:41;;;;;;;9.40;7.00;;;;;;;11.24;95.98;98541.02;105613;1253;61212;-75
2023/04/13 00:18:11;;;;;;;6.50;5.90;;;;;;;11.22;96.14;98543.39;105670;1253;74411;-74
2023/04/13 00:20:40;;;;;;;11.50;6.80;;;;;;;11.21;96.11;98547.55;105989;1251;71441;-74
2023/04/13 00:23:07;;;;;;;16.30;7.70;;;;;;;11.23;96.13;98548.59;105962;1253;73393;-74
2023/04/13 00:25:37;;;;;;;9.80;6.60;;;;;;;11.25;96.19;98546.22;105818;1254;61299;-75
2023/04/13 00:28:05;;;;;;;10.40;6.60;;;;;;;11.25;96.05;98544.91;105862;1258;61812;-73
2023/04/13 00:30:32;;;;;;;11.10;7.00;;;;;;;11.25;95.96;98547.98;105855;1258;74763;-74
2023/04/13 00:33:01;;;;;;;8.60;6.90;;;;;;;11.24;95.73;98548.63;105901;1253;69680;-76
2023/04/13 00:35:28;;;;;;;8.60;6.20;;;;;;;11.23;95.23;98546.41;105974;1253;73853;-72
2023/04/13 00:37:57;;;;;;;11.80;6.40;;;;;;;11.21;95.05;98539.02;105863;1255;60799;-74
2023/04/13 00:40:26;;;;;;;9.10;6.50;;;;;;;11.21;94.81;98533.90;106115;1253;61476;-74
2023/04/13 00:42:54;;;;;;;7.10;5.70;;;;;;;11.25;94.76;98539.19;105720;1260;75105;-74
2023/04/13 00:45:21;;;;;;;12.60;6.80;;;;;;;11.27;94.76;98541.48;106061;1251;70804;-75
2023/04/13 00:47:52;;;;;;;7.10;5.10;;;;;;;11.29;94.57;98543.98;106044;1253;73713;-74
2023/04/13 00:50:20;;;;;;;9.80;5.40;;;;;;;11.28;93.91;98539.06;105872;1253;61400;-74
2023/04/13 00:52:48;;;;;;;12.00;6.20;;;;;;;11.26;93.92;98535.02;105892;1260;60566;-74
2023/04/13 00:55:20;;;;;;;9.30;6.20;;;;;;;11.26;93.72;98521.93;106031;1255;74620;-78
2023/04/13 00:57:51;;;;;;;8.80;6.00;;;;;;;11.23;93.12;98520.70;105976;1253;71334;-74
2023/04/13 01:00:19;;;;;;;10.10;7.30;;;;;;;11.18;93.24;98521.05;105696;1253;73559;-76
2023/04/13 01:02:49;;;;;;;7.50;6.40;;;;;;;11.18;93.84;98523.64;105930;1253;60869;-76
2023/04/13 01:05:18;;;;;;;8.50;6.40;;;;;;;11.20;93.82;98528.35;105903;1253;60444;-75
2023/04/13 01:07:55;;;;;;;8.40;6.80;;;;;;;11.21;94.06;98520.56;106048;1253;74868;-77
2023/04/13 01:10:36;;;;;;;10.20;6.30;;;;;;;11.24;94.06;98520.48;105997;1254;70664;-77
2023/04/13 01:13:30;;;;;;;8.40;6.70;;;;;;;11.22;93.40;98524.05;106107;1253;70874;-75
2023/04/13 01:16:19;;;;;;;11.80;6.80;;;;;;;11.18;93.10;98528.67;106510;1253;60534;-77
2023/04/13 01:18:49;;;;;;;12.10;7.20;;;;;;;11.15;92.75;98524.56;106171;1253;61174;-74
2023/04/13 01:21:20;;;;;;;8.90;6.90;;;;;;;11.10;92.60;98527.25;106075;1257;73644;-78
2023/04/13 01:24:00;;;;;;;10.30;7.40;;;;;;;11.07;93.36;98529.61;106093;1253;71698;-78
2023/04/13 01:26:51;;;;;;;11.90;7.40;;;;;;;11.08;93.46;98529.45;106226;1253;71881;-76
2023/04/13 01:29:19;;;;;;;10.30;6.00;;;;;;;11.07;93.22;98523.13;106013;1253;61322;-75
2023/04/13 01:31:48;;;;;;;10.60;7.40;;;;;;;11.05;93.33;98523.41;106008;1253;61305;-74
2023/04/13 01:34:15;;;;;;;7.70;6.30;;;;;;;10.97;92.66;98520.73;106055;1253;72024;-79
2023/04/13 01:36:44;;;;;;;10.50;6.70;;;;;;;10.90;92.95;98518.98;106252;1253;71201;-76
2023/04/13 01:39:19;;;;;;;12.90;6.90;;;;;;;10.87;93.67;98522.12;106747;1253;72931;-76
2023/04/13 01:41:49;;;;;;;9.50;6.00;;;;;;;10.91;94.22;98520.54;107463;1253;60020;-74
2023/04/13 01:44:17;;;;;;;12.30;6.80;;;;;;;10.94;94.12;98516.01;107873;1252;59197;-74
2023/04/13 01:46:46;;;;;;;6.40;5.70;;;;;;;10.96;93.67;98513.20;107704;1252;72602;-75
2023/04/13 01:49:34;;;;;;;8.60;6.10;;;;;;;10.98;93.93;98510.91;106921;1256;70332;-78
2023/04/13 01:52:26;;;;;;;7.90;5.80;;;;;;;11.02;93.70;98522.20;106414;1253;70947;-79
2023/04/13 01:54:55;;;;;;;7.40;6.10;;;;;;;11.01;93.40;98512.02;106548;1253;60518;-79
2023/04/13 01:57:23;;;;;;;8.00;5.40;;;;;;;11.05;93.52;98518.65;109307;1252;59755;-78
2023/04/13 01:59:51;;;;;;;6.80;5.60;;;;;;;11.08;93.45;98523.69;109281;1253;73641;-77
2023/04/13 02:02:19;;;;;;;7.60;5.20;;;;;;;11.11;93.56;98519.65;109100;1253;70217;-74
2023/04/13 02:04:47;;;;;;;7.00;5.30;;;;;;;11.16;93.40;98515.41;108864;1253;72428;-75
2023/04/13 02:07:15;;;;;;;7.10;5.50;;;;;;;11.21;93.43;98507.29;109250;1253;60174;-78
2023/04/13 02:09:49;;;;;;;9.40;6.60;;;;;;;11.27;92.99;98507.61;109376;1254;60263;-77
2023/04/13 02:12:16;;;;;;;12.30;7.30;;;;;;;11.26;92.27;98509.17;109396;1254;73119;-78
2023/04/13 02:14:44;;;;;;;9.90;7.80;;;;;;;11.23;91.97;98508.02;109485;1254;70429;-79
2023/04/13 02:17:12;;;;;;;7.70;6.50;;;;;;;11.20;92.16;98516.65;109538;1253;72523;-79
2023/04/13 02:19:40;;;;;;;9.20;7.30;;;;;;;11.21;91.89;98524.52;109415;1254;60410;-79
2023/04/13 02:22:07;;;;;;;10.60;7.80;;;;;;;11.20;91.93;98533.45;109299;1254;59990;-80
2023/04/13 02:24:34;;;;;;;10.30;7.80;;;;;;;11.16;92.18;98535.64;109287;1253;73815;-80
2023/04/13 02:27:02;;;;;;;14.00;7.10;;;;;;;11.13;92.09;98528.90;109565;1254;68543;-80
2023/04/13 02:29:30;;;;;;;12.50;6.50;;;;;;;11.12;91.98;98521.94;109433;1254;72633;-76
2023/04/13 02:32:00;;;;;;;10.80;6.60;;;;;;;11.12;92.33;98512.98;109574;1252;59836;-77
2023/04/13 02:34:31;;;;;;;9.40;6.10;;;;;;;11.16;92.75;98504.48;109299;1254;59167;-76
2023/04/13 02:36:59;;;;;;;10.20;7.00;;;;;;;11.17;92.36;98511.04;109307;1254;72730;-77
2023/04/13 02:39:38;;;;;;;8.50;7.00;;;;;;;11.18;92.52;98522.90;109411;1254;69458;-77
2023/04/13 02:42:13;;;;;;;12.50;7.30;;;;;;;11.20;92.25;98528.41;109466;1252;72643;-78
2023/04/13 02:44:40;;;;;;;19.10;7.80;;;;;;;11.23;92.19;98523.92;109438;1253;60025;-78
2023/04/13 02:47:12;;;;;;;10.30;7.50;;;;;;;11.21;91.78;98521.39;109359;1253;59166;-77
2023/04/13 02:49:43;;;;;;;9.70;7.70;;;;;;;11.23;91.77;98524.17;109290;1254;71792;-79
2023/04/13 02:52:31;;;;;;;12.10;8.00;;;;;;;11.22;91.96;98524.77;109511;1254;69508;-77
2023/04/13 02:55:03;;;;;;;10.20;8.50;;;;;;;11.25;91.90;98524.38;109301;1254;70476;-77
2023/04/13 02:57:42;;;;;;;8.90;6.80;;;;;;;11.23;91.40;98526.30;109201;1253;60169;-78
2023/04/13 03:00:10;;;;;;;8.90;7.90;;;;;;;11.21;91.27;98530.75;109113;1254;58540;-76
2023/04/13 03:03:05;;;;;;;11.00;7.40;;;;;;;11.20;91.78;98530.71;109307;1253;74944;-77
2023/04/13 03:05:39;;;;;;;15.40;8.10;;;;;;;11.25;91.58;98522.95;109111;1254;69099;-75
2023/04/13 03:08:09;;;;;;;8.70;6.90;;;;;;;11.23;91.41;98525.19;109291;1254;72346;-78
2023/04/13 03:10:37;;;;;;;10.80;7.50;;;;;;;11.26;91.35;98525.11;109247;1254;59116;-77
2023/04/13 03:13:15;;;;;;;8.90;6.60;;;;;;;11.26;91.14;98516.85;109354;1253;60060;-77
2023/04/13 03:15:43;;;;;;;15.80;7.10;;;;;;;11.26;90.93;98516.45;109232;1253;71785;-79
2023/04/13 03:18:12;;;;;;;11.20;6.90;;;;;;;11.22;90.92;98530.46;109032;1254;68769;-77
2023/04/13 03:20:40;;;;;;;15.20;7.50;;;;;;;11.20;91.23;98536.48;108875;1254;71779;-77
2023/04/13 03:23:07;;;;;;;11.70;7.30;;;;;;;11.22;90.86;98535.79;109201;1252;60429;-75
2023/04/13 03:25:36;;;;;;;11.50;7.50;;;;;;;11.16;90.71;98532.88;109020;1254;61351;-78
2023/04/13 03:28:04;;;;;;;12.70;8.10;;;;;;;11.13;90.46;98538.55;109009;1254;73874;-78
2023/04/13 03:30:37;;;;;;;10.40;7.90;;;;;;;11.13;90.74;98539.98;109153;1254;70107;-76
2023/04/13 03:33:17;;;;;;;11.20;8.50;;;;;;;11.08;91.14;98539.31;109200;1253;73240;-77
2023/04/13 03:35:44;;;;;;;14.70;7.70;;;;;;;11.13;91.12;98548.58;108943;1253;60438;-76
2023/04/13 03:38:26;;;;;;;12.70;8.10;;;;;;;11.21;91.10;98551.65;109052;1254;61233;-76
2023/04/13 03:40:53;;;;;;;10.80;7.50;;;;;;;11.21;91.22;98553.05;108996;1254;71655;-78
2023/04/13 03:43:20;;;;;;;10.80;7.00;;;;;;;11.24;91.00;98562.05;109263;1253;69334;-76
2023/04/13 03:45:53;;;;;;;11.90;7.30;;;;;;;11.26;90.48;98562.42;109004;1254;72915;-76
2023/04/13 03:48:20;;;;;;;9.60;6.40;;;;;;;11.20;90.81;98559.66;108572;1254;60340;-76
2023/04/13 03:50:47;;;;;;;8.00;6.60;;;;;;;11.24;90.79;98562.13;108638;1258;60366;-75
2023/04/13 03:53:21;;;;;;;10.60;7.40;;;;;;;11.26;90.74;98560.88;109018;1254;72708;-78
2023/04/13 03:55:48;;;;;;;10.60;7.00;;;;;;;11.22;90.74;98561.02;108592;1255;69039;-79
2023/04/13 03:58:19;;;;;;;8.90;6.50;;;;;;;11.25;91.00;98555.25;107616;1258;71877;-77
2023/04/13 04:00:46;;;;;;;8.90;7.20;;;;;;;11.27;90.95;98552.77;108910;1254;59769;-77
2023/04/13 04:03:24;;;;;;;10.30;6.40;;;;;;;11.20;90.66;98552.14;109266;1254;58743;-78
2023/04/13 04:05:54;;;;;;;9.10;6.50;;;;;;;11.18;90.61;98553.40;109168;1254;73914;-78
2023/04/13 04:08:25;;;;;;;8.80;7.10;;;;;;;11.21;90.17;98557.33;109113;1254;69692;-77
2023/04/13 04:10:53;;;;;;;8.80;6.10;;;;;;;11.14;90.05;98556.09;108124;1254;71975;-78
2023/04/13 04:13:21;;;;;;;9.50;6.50;;;;;;;11.16;90.43;98560.32;107431;1256;60377;-76
2023/04/13 04:15:53;;;;;;;8.50;6.50;;;;;;;11.17;90.81;98566.29;107870;1254;60367;-76
2023/04/13 04:18:21;;;;;;;10.30;7.00;;;;;;;11.22;91.09;98567.84;108384;1254;74251;-78
2023/04/13 04:20:50;;;;;;;9.70;7.20;;;;;;;11.26;90.91;98573.70;108888;1253;68523;-80
2023/04/13 04:23:18;;;;;;;9.30;6.40;;;;;;;11.29;90.58;98577.44;109106;1254;72123;-76
2023/04/13 04:25:58;;;;;;;12.60;6.70;;;;;;;11.26;90.57;98577.92;109181;1254;58270;-75
2023/04/13 04:28:44;;;;;;;11.00;7.40;;;;;;;11.26;90.46;98576.21;109137;1254;60571;-79
2023/04/13 04:31:23;;;;;;;15.30;7.90;;;;;;;11.22;90.44;98580.80;108929;1254;73679;-79
2023/04/13 04:33:53;;;;;;;11.20;7.30;;;;;;;11.23;90.44;98589.85;108864;1254;69434;-79
2023/04/13 04:36:22;;;;;;;10.70;6.90;;;;;;;11.19;90.45;98596.55;108738;1254;72842;-77
2023/04/13 04:39:01;;;;;;;9.70;7.20;;;;;;;11.20;90.71;98600.98;109053;1253;60962;-79
2023/04/13 04:41:36;;;;;;;9.90;8.40;;;;;;;11.24;90.91;98602.05;108833;1255;60543;-80
2023/04/13 04:44:07;;;;;;;11.70;7.40;;;;;;;11.21;91.01;98597.70;108669;1255;72379;-74
2023/04/13 04:46:40;;;;;;;15.70;8.70;;;;;;;11.24;90.64;98599.62;106662;1255;70575;-73
2023/04/13 04:49:10;;;;;;;12.20;8.30;;;;;;;11.21;90.44;98602.48;105927;1260;73144;-79
2023/04/13 04:51:37;;;;;;;11.00;8.00;;;;;;;11.24;90.99;98596.69;105839;1254;60519;-75
2023/04/13 04:54:06;;;;;;;12.80;7.60;;;;;;;11.22;91.21;98589.23;105842;1259;61148;-81
2023/04/13 04:56:33;;;;;;;9.50;7.00;;;;;;;11.24;90.75;98584.83;106000;1257;72927;-78
2023/04/13 04:59:01;;;;;;;12.10;6.90;;;;;;;11.23;90.53;98579.98;106035;1256;71404;-79
2023/04/13 05:01:37;;;;;;;12.00;7.40;;;;;;;11.17;90.47;98577.45;105943;1256;73789;-78
2023/04/13 05:04:09;;;;;;;10.90;7.80;;;;;;;11.14;90.25;98572.94;105752;1253;60480;-78
2023/04/13 05:06:39;;;;;;;12.00;7.60;;;;;;;11.09;90.39;98570.23;105781;1254;60585;-81
2023/04/13 05:09:08;;;;;;;12.60;8.10;;;;;;;11.08;90.73;98572.71;105814;1259;74881;-79
2023/04/13 05:11:37;;;;;;;14.80;8.60;;;;;;;11.08;91.51;98576.60;105774;1254;71105;-80
2023/04/13 05:14:06;;;;;;;13.00;7.20;;;;;;;11.14;92.07;98576.82;105690;1254;72600;-79
2023/04/13 05:16:36;;;;;;;13.80;7.60;;;;;;;11.17;92.24;98572.30;105846;1254;61145;-81
2023/04/13 05:19:11;;;;;;;11.80;7.30;;;;;;;11.24;91.75;98570.55;105979;1253;60514;-78
2023/04/13 05:21:44;;;;;;;12.90;8.60;;;;;;;11.25;90.64;98575.46;105720;1260;74959;-78
2023/04/13 05:24:11;;;;;;;14.10;8.30;;;;;;;11.18;91.35;98581.78;105896;1254;71186;-78
2023/04/13 05:26:41;;;;;;;13.00;7.30;;;;;;;11.23;91.81;98577.63;105837;1254;74586;-80
2023/04/13 05:29:08;;;;;;;10.50;6.70;;;;;;;11.30;92.13;98574.94;105779;1253;60548;-79
2023/04/13 05:31:39;;;;;;;12.50;7.70;;;;;;;11.37;92.19;98575.29;106440;1254;61350;-80
2023/04/13 05:34:06;;;;;;;8.40;6.70;;;;;;;11.41;92.09;98579.99;106490;1256;235890;-83
2023/04/13 05:38:14;;;;;;;13.20;9.00;;;;;;;11.51;92.11;98583.04;103715;1283;601053;-80
2023/04/13 05:40:41;;;;;;;14.00;11.00;;;;;;;11.48;91.73;98586.06;105362;1267;63121;-82
2023/04/13 05:43:09;;;;;;;12.60;10.10;;;;;;;11.51;91.80;98584.52;105665;1275;60842;-82
2023/04/13 05:45:40;;;;;;;15.60;10.80;;;;;;;11.53;91.87;98583.66;105745;1266;72598;-79
2023/04/13 05:48:09;;;;;;;14.30;11.10;;;;;;;11.56;91.97;98587.14;106903;1267;70866;-80
2023/04/13 05:50:36;;;;;;;14.80;10.10;;;;;;;11.58;92.35;98582.39;107662;1260;165908;-81
2023/04/13 05:53:06;;;;;;;13.40;9.20;;;;;;;11.68;92.20;98583.42;106796;1261;60966;-84
2023/04/13 05:55:42;;;;;;;10.10;7.80;;;;;;;11.72;91.80;98584.83;106656;1252;61529;-82
2023/04/13 05:58:09;;;;;;;11.00;7.30;;;;;;;11.73;91.89;98588.02;106322;1258;72997;-84
2023/04/13 06:00:37;;;;;;;11.80;7.70;;;;;;;11.78;91.02;98583.55;105989;1254;71242;-77
2023/04/13 06:03:06;;;;;;;10.70;7.30;;;;;;;11.81;91.09;98580.08;105961;1254;73855;-78
2023/04/13 06:05:35;;;;;;;8.40;6.80;;;;;;;11.79;91.27;98578.43;105869;1254;61435;-80
2023/04/13 06:08:02;;;;;;;10.80;6.40;;;;;;;11.80;91.30;98584.95;105905;1254;59681;-79
2023/04/13 06:10:30;;;;;;;12.10;7.60;;;;;;;11.86;91.00;98586.71;106178;1254;74255;-77
2023/04/13 06:12:59;;;;;;;11.00;6.90;;;;;;;11.92;91.30;98589.60;106032;1259;70068;-78
2023/04/13 06:15:28;;;;;;;8.00;7.20;;;;;;;11.90;91.65;98590.97;105876;1253;73555;-80
2023/04/13 06:17:55;;;;;;;9.40;7.30;;;;;;;11.92;91.75;98587.85;106605;1254;62324;-84
2023/04/13 06:20:22;;;;;;;15.50;7.80;;;;;;;12.00;91.03;98588.59;106433;1254;61334;-83
2023/04/13 06:22:51;;;;;;;11.10;7.10;;;;;;;12.01;90.38;98587.89;106383;1254;75000;-80
2023/04/13 06:25:19;;;;;;;8.50;6.80;;;;;;;12.06;90.69;98595.71;105831;1254;71402;-78
2023/04/13 06:27:53;;;;;;;9.80;6.50;;;;;;;12.06;90.98;98598.09;105864;1259;73662;-77
2023/04/13 06:30:21;;;;;;;10.50;7.10;;;;;;;12.12;90.83;98599.80;105716;1255;59727;-77
2023/04/13 06:32:51;;;;;;;10.60;6.30;;;;;;;12.20;90.62;98599.99;106095;1254;61315;-77
2023/04/13 06:35:22;;;;;;;7.50;5.90;;;;;;;12.25;90.58;98601.46;105906;1253;71192;-77
2023/04/13 06:37:50;;;;;;;7.20;6.20;;;;;;;12.31;90.85;98603.26;106245;1257;71290;-78
2023/04/13 06:40:24;;;;;;;9.80;5.40;;;;;;;12.34;90.71;98607.27;106357;1259;70596;-78
2023/04/13 06:43:02;;;;;;;13.90;6.20;;;;;;;12.40;90.22;98611.65;106508;1254;59663;-80
2023/04/13 06:45:39;;;;;;;8.70;6.50;;;;;;;12.45;89.49;98616.02;107195;1254;61837;-82
2023/04/13 06:48:10;;;;;;;11.80;7.40;;;;;;;12.48;89.46;98617.29;106625;1254;72903;-79
2023/04/13 06:50:38;;;;;;;9.80;7.40;;;;;;;12.48;88.94;98622.98;107263;1254;71251;-79
2023/04/13 06:53:06;;;;;;;10.50;6.60;;;;;;;12.46;87.91;98628.20;107401;1254;73889;-80
2023/04/13 06:55:35;;;;;;;10.30;6.50;;;;;;;12.48;88.26;98626.40;107297;1254;61452;-80
2023/04/13 06:58:03;;;;;;;12.90;7.60;;;;;;;12.52;88.78;98627.44;106406;1254;60409;-82
2023/04/13 07:00:31;;;;;;;14.50;7.50;;;;;;;12.52;89.04;98627.52;106737;1259;73774;-79
2023/04/13 07:03:00;;;;;;;15.10;10.00;;;;;;;12.60;89.11;98628.83;107156;1254;71829;-80
2023/04/13 07:05:28;;;;;;;11.00;9.70;;;;;;;12.68;88.47;98625.73;107210;1254;71388;-80
2023/04/13 07:08:00;;;;;;;12.50;10.10;;;;;;;12.74;88.62;98625.05;106708;1253;60604;-78
2023/04/13 07:10:28;;;;;;;12.60;8.70;;;;;;;12.78;87.81;98619.21;106402;1254;59717;-79
2023/04/13 07:12:56;;;;;;;13.30;9.00;;;;;;;12.80;87.09;98614.34;106138;1257;73262;-79
2023/04/13 07:15:23;;;;;;;9.90;8.30;;;;;;;12.89;88.28;98612.23;106184;1254;71486;-79
2023/04/13 07:17:51;;;;;;;10.20;8.90;;;;;;;12.96;88.68;98616.58;105879;1254;72907;-77
2023/04/13 07:20:18;;;;;;;8.70;6.90;;;;;;;13.03;88.65;98622.36;106075;1259;60290;-80
2023/04/13 07:22:47;;;;;;;10.70;7.00;;;;;;;13.15;87.74;98622.41;106313;1254;61292;-78
2023/04/13 07:25:14;;;;;;;10.20;6.80;;;;;;;13.20;87.56;98626.29;105932;1260;72676;-78
2023/04/13 07:27:42;;;;;;;9.80;7.50;;;;;;;13.28;87.28;98630.48;106166;1254;70668;-80
2023/04/13 07:30:10;;;;;;;15.30;7.80;;;;;;;13.36;86.55;98628.00;105778;1254;72137;-81
2023/04/13 07:32:42;;;;;;;10.30;6.90;;;;;;;13.40;87.40;98626.52;105791;1253;63000;-80
2023/04/13 07:35:09;;;;;;;11.20;7.90;;;;;;;13.50;88.26;98622.14;105916;1254;62471;-81
2023/04/13 07:37:38;;;;;;;10.90;7.30;;;;;;;13.67;87.97;98620.77;105812;1260;72559;-80
2023/04/13 07:40:07;;;;;;;13.80;7.90;;;;;;;13.79;88.01;98622.08;106076;1254;70302;-78
2023/04/13 07:42:35;;;;;;;11.40;7.80;;;;;;;13.90;87.75;98625.45;106073;1254;71053;-80
2023/04/13 07:45:02;;;;;;;15.80;7.80;;;;;;;14.06;86.19;98629.19;106010;1255;62858;-80
2023/04/13 07:47:30;;;;;;;15.50;8.80;;;;;;;14.14;86.10;98634.92;106308;1256;61278;-78
2023/04/13 07:50:04;;;;;;;16.60;8.80;;;;;;;14.19;84.63;98635.12;106158;1254;72082;-77
2023/04/13 07:52:32;;;;;;;13.10;9.00;;;;;;;14.20;84.59;98642.05;106072;1259;70051;-79
2023/04/13 07:55:01;;;;;;;16.80;9.20;;;;;;;14.26;84.60;98643.45;106184;1259;71073;-79
2023/04/13 07:57:30;;;;;;;15.10;9.50;;;;;;;14.22;84.70;98648.73;106245;1254;61183;-80
2023/04/13 08:00:00;;;;;;;14.40;10.20;;;;;;;14.20;84.28;98650.16;106314;1254;61245;-77
2023/04/13 08:02:30;;;;;;;13.40;8.90;;;;;;;14.26;84.23;98649.60;106497;1260;73285;-79
2023/04/13 08:04:58;;;;;;;14.20;9.50;;;;;;;14.27;83.33;98656.09;107003;1254;70537;-80
2023/04/13 08:07:28;;;;;;;13.10;7.80;;;;;;;14.23;83.47;98657.44;107023;1256;72078;-76
2023/04/13 08:09:56;;;;;;;15.80;8.80;;;;;;;14.27;83.29;98656.42;106016;1259;63259;-78
2023/04/13 08:12:23;;;;;;;15.00;8.70;;;;;;;14.31;83.39;98654.05;106148;1259;60191;-79
2023/04/13 08:14:53;;;;;;;13.10;8.50;;;;;;;14.38;83.25;98654.73;106054;1259;74090;-78
2023/04/13 08:17:21;;;;;;;11.80;8.10;;;;;;;14.46;84.33;98659.54;106282;1254;69910;-82
2023/04/13 08:19:49;;;;;;;11.50;9.00;;;;;;;14.50;83.88;98661.20;105938;1254;73154;-80
2023/04/13 08:22:21;;;;;;;13.40;8.10;;;;;;;14.54;82.59;98659.62;106042;1257;62715;-77
2023/04/13 08:24:48;;;;;;;11.90;8.10;;;;;;;14.63;83.80;98656.34;106292;1254;60262;-76
2023/04/13 08:27:15;;;;;;;12.40;8.40;;;;;;;14.68;83.64;98655.00;106097;1259;73983;-78
2023/04/13 08:29:42;;;;;;;13.50;7.40;;;;;;;14.73;82.65;98660.13;106280;1260;69643;-78
2023/04/13 08:32:09;;;;;;;13.50;6.90;;;;;;;14.81;81.65;98658.73;107655;1254;72880;-84
2023/04/13 08:34:37;;;;;;;14.90;8.70;;;;;;;14.84;82.48;98660.80;108232;1252;61766;-82
2023/04/13 08:37:04;;;;;;;12.90;7.10;;;;;;;14.87;82.15;98657.23;107744;1254;60006;-83
2023/04/13 08:39:42;;;;;;;13.10;7.20;;;;;;;14.96;80.95;98658.65;106507;1256;74300;-82
2023/04/13 08:42:10;;;;;;;10.00;6.70;;;;;;;14.91;80.31;98659.20;106346;1254;71480;-82
2023/04/13 08:44:39;;;;;;;11.60;6.20;;;;;;;14.84;79.92;98658.04;106058;1254;73326;-82
2023/04/13 08:47:16;;;;;;;9.80;6.00;;;;;;;14.84;80.07;98660.23;106156;1252;61517;-84
2023/04/13 08:49:43;;;;;;;11.30;6.60;;;;;;;14.83;79.33;98659.25;106318;1252;59687;-84
2023/04/13 08:52:28;;;;;;;11.20;5.80;;;;;;;14.77;79.35;98658.95;107338;1257;74710;-82
2023/04/13 08:54:59;;;;;;;8.30;5.90;;;;;;;14.80;79.74;98659.89;108455;1254;71827;-84
2023/04/13 08:57:31;;;;;;;15.20;6.60;;;;;;;14.89;79.37;98665.89;108076;1254;71461;-84
2023/04/13 08:59:58;;;;;;;11.30;6.70;;;;;;;14.91;79.47;98662.05;107886;1254;60350;-84
2023/04/13 09:02:30;;;;;;;9.00;6.40;;;;;;;14.94;78.91;98660.85;108016;1258;60878;-84
2023/04/13 09:05:04;;;;;;;8.50;5.70;;;;;;;15.00;78.01;98659.30;105977;1252;72422;-84
2023/04/13 09:07:35;;;;;;;9.30;5.90;;;;;;;15.01;77.07;98660.24;106472;1255;70990;-84
2023/04/13 09:10:09;;;;;;;6.40;5.10;;;;;;;15.03;77.50;98663.77;106301;1254;72889;-81
2023/04/13 09:12:36;;;;;;;9.00;4.90;;;;;;;15.05;76.50;98660.48;106721;1254;61924;-81
2023/04/13 09:15:07;;;;;;;6.70;5.50;;;;;;;15.12;75.81;98663.57;106562;1254;59535;-81
2023/04/13 09:17:39;;;;;;;7.80;5.80;;;;;;;15.14;76.40;98663.67;106323;1253;72758;-80
2023/04/13 09:20:24;;;;;;;10.00;5.70;;;;;;;15.15;76.18;98670.02;106202;1257;70703;-78
2023/04/13 09:22:52;;;;;;;11.10;5.80;;;;;;;15.14;77.96;98670.14;106012;1256;72622;-76
2023/04/13 09:25:23;;;;;;;12.00;6.50;;;;;;;15.07;77.70;98670.58;105923;1257;63170;-75
2023/04/13 09:27:51;;;;;;;10.60;5.80;;;;;;;14.98;76.72;98670.44;105889;1257;59735;-74
2023/04/13 09:30:20;;;;;;;7.20;5.30;;;;;;;14.91;76.11;98669.15;105746;1254;74067;-76
2023/04/13 09:33:03;;;;;;;9.10;5.60;;;;;;;14.91;75.91;98666.73;106012;1259;73004;-76
2023/04/13 09:35:31;;;;;;;10.20;5.30;;;;;;;14.85;75.54;98670.67;106141;1259;72879;-76
2023/04/13 09:37:59;;;;;;;10.60;7.20;;;;;;;14.75;76.38;98671.63;105848;1259;62289;-75
2023/04/13 09:40:26;;;;;;;9.90;6.40;;;;;;;14.71;77.06;98670.92;105773;1259;61039;-78
2023/04/13 09:42:55;;;;;;;12.80;6.70;;;;;;;14.74;77.75;98672.14;106023;1253;73282;-75
2023/04/13 09:45:22;;;;;;;9.00;6.40;;;;;;;14.74;77.92;98670.90;105940;1267;70592;-75
2023/04/13 09:47:51;;;;;;;8.00;5.90;;;;;;;14.75;77.13;98670.81;105846;1254;74498;-73
2023/04/13 09:50:20;;;;;;;9.60;5.90;;;;;;;14.82;77.52;98672.14;106062;1254;62978;-74
2023/04/13 09:53:04;;;;;;;9.10;6.10;;;;;;;14.90;76.70;98675.17;106023;1251;60520;-74
2023/04/13 09:55:33;;;;;;;12.20;5.90;;;;;;;14.99;76.16;98678.41;106267;1255;74926;-76
2023/04/13 09:58:13;;;;;;;6.30;5.70;;;;;;;15.04;78.18;98676.21;106059;1256;69355;-74
2023/04/13 10:00:42;;;;;;;9.60;5.30;;;;;;;15.06;76.57;98677.14;106024;1255;71836;-77
2023/04/13 10:03:10;;;;;;;9.20;5.70;;;;;;;15.13;77.56;98679.38;106068;1256;60960;-75
2023/04/13 10:05:38;;;;;;;11.40;6.20;;;;;;;15.18;76.93;98683.17;105924;1260;60558;-77
2023/04/13 10:08:24;;;;;;;9.70;5.80;;;;;;;15.22;76.51;98681.69;105947;1257;75112;-76
2023/04/13 10:11:11;;;;;;;10.50;6.80;;;;;;;15.24;76.31;98680.30;105929;1255;69555;-75
2023/04/13 10:13:49;;;;;;;7.80;5.70;;;;;;;15.27;76.60;98677.10;105909;1254;73677;-75
2023/04/13 10:16:44;;;;;;;7.80;5.70;;;;;;;15.23;76.82;98680.77;105793;1254;60408;-75
2023/04/13 10:19:14;;;;;;;9.00;5.90;;;;;;;15.14;75.76;98687.26;105854;1257;60742;-75
2023/04/13 10:21:43;;;;;;;5.80;5.30;;;;;;;15.03;76.03;98692.15;105808;1260;73989;-75
2023/04/13 10:24:13;;;;;;;9.50;5.90;;;;;;;14.94;75.41;98688.92;106115;1260;71609;-74
2023/04/13 10:26:42;;;;;;;8.00;5.60;;;;;;;14.88;76.26;98686.23;107137;1257;73034;-76
2023/04/13 10:29:12;;;;;;;9.20;5.10;;;;;;;14.85;75.70;98693.05;107261;1254;61818;-74
2023/04/13 10:31:46;;;;;;;14.00;5.90;;;;;;;14.83;74.98;98696.68;107415;1257;60389;-74
2023/04/13 10:34:27;;;;;;;11.00;5.60;;;;;;;14.83;75.64;98702.61;106956;1270;73687;-73
2023/04/13 10:36:57;;;;;;;9.10;5.50;;;;;;;14.81;76.72;98698.31;105674;1254;69888;-75
2023/04/13 10:39:28;;;;;;;12.60;5.40;;;;;;;14.78;75.93;98703.38;106028;1257;70435;-75
2023/04/13 10:42:06;;;;;;;7.70;5.80;;;;;;;14.73;76.07;98701.79;105778;1261;60638;-76
2023/04/13 10:44:50;;;;;;;8.90;5.80;;;;;;;14.67;75.69;98702.71;105960;1256;60312;-76
2023/04/13 10:47:22;;;;;;;12.50;6.10;;;;;;;14.57;75.08;98701.81;105964;1256;75099;-74
2023/04/13 10:49:52;;;;;;;11.20;5.90;;;;;;;14.50;75.05;98703.70;106043;1257;69521;-73
2023/04/13 10:52:20;;;;;;;9.50;6.10;;;;;;;14.46;75.83;98703.95;105882;1254;73563;-76
2023/04/13 10:54:47;;;;;;;11.30;6.80;;;;;;;14.40;75.97;98706.59;105896;1254;61750;-72
2023/04/13 10:57:19;;;;;;;7.40;5.60;;;;;;;14.36;76.91;98708.02;105975;1252;61647;-76
2023/04/13 10:59:55;;;;;;;10.10;6.60;;;;;;;14.33;76.56;98714.81;105880;1256;74050;-75
2023/04/13 11:02:30;;;;;;;6.00;5.40;;;;;;;14.33;77.05;98716.05;105590;1254;70442;-75
2023/04/13 11:04:56;;;;;;;8.70;6.20;;;;;;;14.38;76.98;98714.79;105721;1260;72585;-76
2023/04/13 11:07:25;;;;;;;7.60;6.20;;;;;;;14.32;76.51;98714.05;105875;1255;60660;-76
2023/04/13 11:09:57;;;;;;;9.30;6.80;;;;;;;14.26;76.58;98718.12;106000;1253;61741;-77
2023/04/13 11:12:30;;;;;;;10.70;6.40;;;;;;;14.23;75.94;98721.22;105644;1257;73668;-75
2023/04/13 11:15:02;;;;;;;8.70;5.20;;;;;;;14.16;75.92;98729.73;105750;1258;70703;-75
2023/04/13 11:17:30;;;;;;;10.10;5.90;;;;;;;14.12;75.63;98731.00;105750;1255;73762;-73
2023/04/13 11:19:57;;;;;;;8.30;5.60;;;;;;;14.07;76.17;98736.08;105595;1254;61560;-75
2023/04/13 11:22:34;;;;;;;9.30;6.00;;;;;;;13.98;76.14;98737.35;105899;1257;60741;-74
2023/04/13 11:25:06;;;;;;;12.20;5.70;;;;;;;13.93;76.53;98740.35;106018;1255;73867;-74
2023/04/13 11:27:32;;;;;;;7.60;5.90;;;;;;;13.95;77.10;98742.02;105820;1260;70309;-73
2023/04/13 11:30:05;;;;;;;11.30;6.00;;;;;;;13.95;76.81;98743.14;105782;1257;73508;-74
2023/04/13 11:32:33;;;;;;;6.60;5.90;;;;;;;13.90;76.74;98740.95;105926;1256;62937;-75
2023/04/13 11:35:11;;;;;;;7.80;5.60;;;;;;;13.87;77.19;98740.34;106004;1254;60514;-75
2023/04/13 11:37:42;;;;;;;7.40;5.00;;;;;;;13.80;77.06;98743.27;105532;1254;73822;-74